sensor_id;sensor_type;location;lat;lon;timestamp;pressure;altitude;pressure_sealevel;temperature;humidity
21824;BME280;11074;48.596;9.238;2022-07-29T00:00:43;98127.91;;;20.27;100.00
21824;BME280;11074;48.596;9.238;2022-07-29T00:03:11;98125.72;;;19.98;100.00
21824;BME280;11074;48.596;9.238;2022-07-29T00:05:39;98117.59;;;19.98;100.00
21824;BME280;11074;48.596;9.238;2022-07-29T00:08:07;98118.25;;;20.04;100.00
21824;BME280;11074;48.596;9.238;2022-07-29T00:10:33;98103.59;;;19.74;100.00
21824;BME280;11074;48.596;9.238;2022-07-29T00:12:58;98110.72;;;20.01;100.00
21824;BME280;11074;48.596;9.238;2022-07-29T00:15:24;98110.25;;;20.07;100.00
21824;BME280;11074;48.596;9.238;2022-07-29T00:17:50;98108.25;;;19.82;100.00
21824;BME280;11074;48.596;9.238;2022-07-29T00:20:16;98124.28;;;20.01;100.00
21824;BME280;11074;48.596;9.238;2022-07-29T00:22:42;98112.72;;;19.86;100.00
21824;BME280;11074;48.596;9.238;2022-07-29T00:25:08;98102.22;;;19.93;100.00
21824;BME280;11074;48.596;9.238;2022-07-29T00:27:35;98106.41;;;20.00;100.00
21824;BME280;11074;48.596;9.238;2022-07-29T00:30:02;98115.69;;;20.07;100.00
21824;BME280;11074;48.596;9.238;2022-07-29T00:32:27;98109.94;;;20.09;100.00
21824;BME280;11074;48.596;9.238;2022-07-29T00:34:53;98101.97;;;20.12;100.00
21824;BME280;11074;48.596;9.238;2022-07-29T00:37:37;98101.28;;;19.98;100.00
21824;BME280;11074;48.596;9.238;2022-07-29T00:40:03;98108.94;;;19.96;100.00
21824;BME280;11074;48.596;9.238;2022-07-29T00:42:29;98106.88;;;19.93;100.00
21824;BME280;11074;48.596;9.238;2022-07-29T00:44:55;98104.28;;;19.88;100.00
21824;BME280;11074;48.596;9.238;2022-07-29T00:47:20;98105.72;;;19.94;100.00
21824;BME280;11074;48.596;9.238;2022-07-29T00:49:47;98103.81;;;19.94;100.00
21824;BME280;11074;48.596;9.238;2022-07-29T00:52:13;98097.13;;;19.92;100.00
21824;BME280;11074;48.596;9.238;2022-07-29T00:54:39;98092.25;;;19.72;100.00
21824;BME280;11074;48.596;9.238;2022-07-29T00:57:07;98093.03;;;19.72;100.00
21824;BME280;11074;48.596;9.238;2022-07-29T00:59:33;98091.53;;;19.97;100.00
21824;BME280;11074;48.596;9.238;2022-07-29T01:01:59;98089.16;;;20.04;100.00
21824;BME280;11074;48.596;9.238;2022-07-29T01:04:25;98087.72;;;19.98;100.00
21824;BME280;11074;48.596;9.238;2022-07-29T01:06:53;98083.09;;;19.99;100.00
21824;BME280;11074;48.596;9.238;2022-07-29T01:09:20;98078.81;;;20.06;100.00
21824;BME280;11074;48.596;9.238;2022-07-29T01:11:47;98072.50;;;19.80;100.00
21824;BME280;11074;48.596;9.238;2022-07-29T01:14:15;98077.41;;;19.78;100.00
21824;BME280;11074;48.596;9.238;2022-07-29T01:17:12;98073.66;;;19.26;100.00
21824;BME280;11074;48.596;9.238;2022-07-29T01:20:17;98069.91;;;19.13;100.00
21824;BME280;11074;48.596;9.238;2022-07-29T01:29:11;98077.03;;;19.62;100.00
21824;BME280;11074;48.596;9.238;2022-07-29T01:32:06;98068.09;;;19.53;100.00
21824;BME280;11074;48.596;9.238;2022-07-29T01:37:36;98068.28;;;19.65;100.00
21824;BME280;11074;48.596;9.238;2022-07-29T01:40:09;98072.28;;;19.68;100.00
21824;BME280;11074;48.596;9.238;2022-07-29T01:42:45;98068.84;;;19.23;100.00
21824;BME280;11074;48.596;9.238;2022-07-29T01:45:40;98069.16;;;18.77;100.00
21824;BME280;11074;48.596;9.238;2022-07-29T01:48:19;98065.19;;;18.97;100.00
21824;BME280;11074;48.596;9.238;2022-07-29T01:50:50;98073.38;;;19.05;100.00
21824;BME280;11074;48.596;9.238;2022-07-29T01:53:34;98052.78;;;19.35;100.00
21824;BME280;11074;48.596;9.238;2022-07-29T01:56:03;98061.88;;;19.30;100.00
21824;BME280;11074;48.596;9.238;2022-07-29T01:58:31;98065.59;;;18.90;100.00
21824;BME280;11074;48.596;9.238;2022-07-29T02:00:59;98065.47;;;18.73;100.00
21824;BME280;11074;48.596;9.238;2022-07-29T02:03:26;98068.84;;;19.01;100.00
21824;BME280;11074;48.596;9.238;2022-07-29T02:05:55;98067.63;;;18.85;100.00
21824;BME280;11074;48.596;9.238;2022-07-29T02:08:23;98059.00;;;18.83;100.00
21824;BME280;11074;48.596;9.238;2022-07-29T02:10:52;98057.41;;;19.04;100.00
21824;BME280;11074;48.596;9.238;2022-07-29T02:13:23;98061.84;;;19.00;100.00
21824;BME280;11074;48.596;9.238;2022-07-29T02:15:51;98052.72;;;18.73;100.00
21824;BME280;11074;48.596;9.238;2022-07-29T02:18:22;98053.41;;;18.79;100.00
21824;BME280;11074;48.596;9.238;2022-07-29T02:20:52;98058.81;;;19.01;100.00
21824;BME280;11074;48.596;9.238;2022-07-29T02:23:22;98054.28;;;19.10;100.00
21824;BME280;11074;48.596;9.238;2022-07-29T02:25:53;98051.31;;;18.98;100.00
21824;BME280;11074;48.596;9.238;2022-07-29T02:28:22;98055.16;;;18.97;100.00
21824;BME280;11074;48.596;9.238;2022-07-29T02:30:51;98059.75;;;18.97;100.00
21824;BME280;11074;48.596;9.238;2022-07-29T02:33:19;98057.34;;;18.95;100.00
21824;BME280;11074;48.596;9.238;2022-07-29T02:35:48;98052.38;;;18.89;100.00
21824;BME280;11074;48.596;9.238;2022-07-29T02:38:18;98052.53;;;18.48;100.00
21824;BME280;11074;48.596;9.238;2022-07-29T02:41:20;98049.09;;;18.78;100.00
21824;BME280;11074;48.596;9.238;2022-07-29T02:43:54;98055.06;;;18.89;100.00
21824;BME280;11074;48.596;9.238;2022-07-29T02:49:31;98054.56;;;18.64;100.00
21824;BME280;11074;48.596;9.238;2022-07-29T02:52:04;98048.00;;;18.57;100.00
21824;BME280;11074;48.596;9.238;2022-07-29T02:54:46;98051.91;;;18.37;100.00
21824;BME280;11074;48.596;9.238;2022-07-29T02:57:51;98047.34;;;18.24;100.00
21824;BME280;11074;48.596;9.238;2022-07-29T03:00:23;98043.06;;;18.09;100.00
21824;BME280;11074;48.596;9.238;2022-07-29T03:02:55;98046.78;;;18.00;100.00
21824;BME280;11074;48.596;9.238;2022-07-29T03:05:23;98042.28;;;18.31;100.00
21824;BME280;11074;48.596;9.238;2022-07-29T03:08:01;98047.59;;;18.50;100.00
21824;BME280;11074;48.596;9.238;2022-07-29T03:10:28;98041.66;;;18.61;100.00
21824;BME280;11074;48.596;9.238;2022-07-29T03:12:56;98053.03;;;18.72;100.00
21824;BME280;11074;48.596;9.238;2022-07-29T03:15:23;98043.25;;;18.62;100.00
21824;BME280;11074;48.596;9.238;2022-07-29T03:17:49;98046.41;;;18.78;100.00
21824;BME280;11074;48.596;9.238;2022-07-29T03:20:16;98046.41;;;18.78;100.00
21824;BME280;11074;48.596;9.238;2022-07-29T03:22:43;98051.69;;;18.83;100.00
21824;BME280;11074;48.596;9.238;2022-07-29T03:25:10;98052.16;;;18.85;100.00
21824;BME280;11074;48.596;9.238;2022-07-29T03:27:37;98050.44;;;18.67;100.00
21824;BME280;11074;48.596;9.238;2022-07-29T03:30:04;98044.81;;;18.41;100.00
21824;BME280;11074;48.596;9.238;2022-07-29T03:32:30;98050.22;;;18.41;100.00
21824;BME280;11074;48.596;9.238;2022-07-29T03:34:56;98056.38;;;18.20;100.00
21824;BME280;11074;48.596;9.238;2022-07-29T03:37:21;98047.38;;;17.97;100.00
21824;BME280;11074;48.596;9.238;2022-07-29T03:39:48;98058.81;;;17.94;100.00
21824;BME280;11074;48.596;9.238;2022-07-29T03:42:19;98048.78;;;18.08;100.00
21824;BME280;11074;48.596;9.238;2022-07-29T03:44:48;98055.69;;;18.14;100.00
21824;BME280;11074;48.596;9.238;2022-07-29T03:47:19;98059.69;;;18.03;100.00
21824;BME280;11074;48.596;9.238;2022-07-29T03:49:50;98061.69;;;18.25;100.00
21824;BME280;11074;48.596;9.238;2022-07-29T03:52:17;98058.75;;;18.48;100.00
21824;BME280;11074;48.596;9.238;2022-07-29T03:54:43;98064.63;;;18.50;100.00
21824;BME280;11074;48.596;9.238;2022-07-29T03:57:11;98066.34;;;18.60;100.00
21824;BME280;11074;48.596;9.238;2022-07-29T03:59:38;98072.72;;;18.64;100.00
21824;BME280;11074;48.596;9.238;2022-07-29T04:02:08;98067.22;;;18.55;100.00
21824;BME280;11074;48.596;9.238;2022-07-29T04:04:35;98072.53;;;18.60;100.00
21824;BME280;11074;48.596;9.238;2022-07-29T04:07:01;98062.09;;;18.67;100.00
21824;BME280;11074;48.596;9.238;2022-07-29T04:09:27;98077.34;;;18.63;100.00
21824;BME280;11074;48.596;9.238;2022-07-29T04:11:53;98071.78;;;18.68;100.00
21824;BME280;11074;48.596;9.238;2022-07-29T04:14:18;98069.44;;;18.53;100.00
21824;BME280;11074;48.596;9.238;2022-07-29T04:16:44;98074.88;;;18.53;100.00
21824;BME280;11074;48.596;9.238;2022-07-29T04:19:10;98069.34;;;18.45;100.00
21824;BME280;11074;48.596;9.238;2022-07-29T04:21:40;98078.50;;;18.49;100.00
21824;BME280;11074;48.596;9.238;2022-07-29T04:24:07;98076.19;;;18.29;100.00
21824;BME280;11074;48.596;9.238;2022-07-29T04:26:34;98078.78;;;18.34;100.00
21824;BME280;11074;48.596;9.238;2022-07-29T04:29:00;98085.41;;;18.41;100.00
21824;BME280;11074;48.596;9.238;2022-07-29T04:31:26;98080.41;;;18.48;100.00
21824;BME280;11074;48.596;9.238;2022-07-29T04:33:51;98085.81;;;18.35;100.00
21824;BME280;11074;48.596;9.238;2022-07-29T04:36:17;98089.53;;;18.39;100.00
21824;BME280;11074;48.596;9.238;2022-07-29T04:38:43;98091.91;;;18.54;100.00
21824;BME280;11074;48.596;9.238;2022-07-29T04:41:09;98095.91;;;18.56;100.00
21824;BME280;11074;48.596;9.238;2022-07-29T04:43:35;98096.00;;;18.65;100.00
21824;BME280;11074;48.596;9.238;2022-07-29T04:46:03;98093.84;;;18.75;100.00
21824;BME280;11074;48.596;9.238;2022-07-29T04:48:29;98091.47;;;18.60;100.00
21824;BME280;11074;48.596;9.238;2022-07-29T04:50:56;98091.66;;;18.28;100.00
21824;BME280;11074;48.596;9.238;2022-07-29T04:53:22;98092.38;;;18.20;100.00
21824;BME280;11074;48.596;9.238;2022-07-29T04:55:48;98089.06;;;18.09;100.00
21824;BME280;11074;48.596;9.238;2022-07-29T04:58:14;98091.66;;;18.28;100.00
21824;BME280;11074;48.596;9.238;2022-07-29T05:00:40;98078.78;;;18.47;100.00
21824;BME280;11074;48.596;9.238;2022-07-29T05:03:06;98086.19;;;18.55;100.00
21824;BME280;11074;48.596;9.238;2022-07-29T05:05:32;98085.91;;;18.57;100.00
21824;BME280;11074;48.596;9.238;2022-07-29T05:07:58;98095.72;;;18.89;100.00
21824;BME280;11074;48.596;9.238;2022-07-29T05:10:24;98094.41;;;18.86;100.00
21824;BME280;11074;48.596;9.238;2022-07-29T05:12:50;98096.69;;;18.93;100.00
21824;BME280;11074;48.596;9.238;2022-07-29T05:15:15;98089.84;;;18.95;100.00
21824;BME280;11074;48.596;9.238;2022-07-29T05:17:43;98088.44;;;18.98;100.00
21824;BME280;11074;48.596;9.238;2022-07-29T05:20:10;98089.44;;;19.02;100.00
21824;BME280;11074;48.596;9.238;2022-07-29T05:22:35;98086.41;;;19.03;100.00
21824;BME280;11074;48.596;9.238;2022-07-29T05:25:01;98099.03;;;19.08;100.00
21824;BME280;11074;48.596;9.238;2022-07-29T05:27:27;98096.63;;;19.06;100.00
21824;BME280;11074;48.596;9.238;2022-07-29T05:29:53;98093.50;;;19.13;100.00
21824;BME280;11074;48.596;9.238;2022-07-29T05:32:19;98096.88;;;19.18;100.00
21824;BME280;11074;48.596;9.238;2022-07-29T05:34:44;98098.72;;;19.09;100.00
21824;BME280;11074;48.596;9.238;2022-07-29T05:37:10;98100.38;;;19.19;100.00
21824;BME280;11074;48.596;9.238;2022-07-29T05:39:36;98097.91;;;19.09;100.00
21824;BME280;11074;48.596;9.238;2022-07-29T05:42:02;98106.59;;;19.19;100.00
21824;BME280;11074;48.596;9.238;2022-07-29T05:44:27;98100.91;;;19.29;100.00
21824;BME280;11074;48.596;9.238;2022-07-29T05:46:53;98109.25;;;19.33;100.00
21824;BME280;11074;48.596;9.238;2022-07-29T05:49:19;98105.69;;;19.24;100.00
21824;BME280;11074;48.596;9.238;2022-07-29T05:51:45;98104.53;;;19.39;100.00
21824;BME280;11074;48.596;9.238;2022-07-29T05:54:11;98114.13;;;19.45;100.00
21824;BME280;11074;48.596;9.238;2022-07-29T05:56:36;98121.03;;;19.51;100.00
21824;BME280;11074;48.596;9.238;2022-07-29T05:59:02;98106.34;;;19.52;100.00
21824;BME280;11074;48.596;9.238;2022-07-29T06:01:28;98109.91;;;19.61;100.00
21824;BME280;11074;48.596;9.238;2022-07-29T06:03:54;98116.63;;;19.63;100.00
21824;BME280;11074;48.596;9.238;2022-07-29T06:06:20;98121.59;;;19.70;100.00
21824;BME280;11074;48.596;9.238;2022-07-29T06:08:46;98114.25;;;19.70;100.00
21824;BME280;11074;48.596;9.238;2022-07-29T06:11:11;98119.50;;;19.67;100.00
21824;BME280;11074;48.596;9.238;2022-07-29T06:13:37;98117.28;;;19.69;100.00
21824;BME280;11074;48.596;9.238;2022-07-29T06:16:03;98116.31;;;19.65;100.00
21824;BME280;11074;48.596;9.238;2022-07-29T06:18:29;98127.69;;;19.45;100.00
21824;BME280;11074;48.596;9.238;2022-07-29T06:20:55;98128.38;;;19.50;100.00
21824;BME280;11074;48.596;9.238;2022-07-29T06:23:21;98123.09;;;19.54;100.00
21824;BME280;11074;48.596;9.238;2022-07-29T06:25:47;98126.75;;;19.49;100.00
21824;BME280;11074;48.596;9.238;2022-07-29T06:28:12;98127.63;;;19.67;100.00
21824;BME280;11074;48.596;9.238;2022-07-29T06:30:39;98119.34;;;19.63;100.00
21824;BME280;11074;48.596;9.238;2022-07-29T06:33:05;98125.44;;;19.77;100.00
21824;BME280;11074;48.596;9.238;2022-07-29T06:35:33;98119.44;;;19.89;100.00
21824;BME280;11074;48.596;9.238;2022-07-29T06:38:00;98124.94;;;20.06;100.00
21824;BME280;11074;48.596;9.238;2022-07-29T06:40:26;98118.59;;;20.19;100.00
21824;BME280;11074;48.596;9.238;2022-07-29T06:43:10;98118.97;;;20.26;100.00
21824;BME280;11074;48.596;9.238;2022-07-29T06:45:36;98122.50;;;20.35;100.00
21824;BME280;11074;48.596;9.238;2022-07-29T06:48:02;98121.22;;;20.33;100.00
21824;BME280;11074;48.596;9.238;2022-07-29T06:50:28;98124.28;;;20.40;100.00
21824;BME280;11074;48.596;9.238;2022-07-29T06:52:53;98122.69;;;20.47;100.00
21824;BME280;11074;48.596;9.238;2022-07-29T06:55:19;98130.84;;;20.56;100.00
21824;BME280;11074;48.596;9.238;2022-07-29T06:57:45;98119.84;;;20.78;98.71
21824;BME280;11074;48.596;9.238;2022-07-29T07:00:12;98119.38;;;20.85;96.69
21824;BME280;11074;48.596;9.238;2022-07-29T07:02:38;98121.91;;;20.90;94.39
21824;BME280;11074;48.596;9.238;2022-07-29T07:05:04;98118.72;;;20.96;93.95
21824;BME280;11074;48.596;9.238;2022-07-29T07:07:31;98122.88;;;21.02;93.74
21824;BME280;11074;48.596;9.238;2022-07-29T07:09:57;98119.84;;;21.04;94.41
21824;BME280;11074;48.596;9.238;2022-07-29T07:12:22;98122.25;;;21.14;94.06
21824;BME280;11074;48.596;9.238;2022-07-29T07:14:48;98122.91;;;21.20;93.43
21824;BME280;11074;48.596;9.238;2022-07-29T07:17:14;98124.00;;;21.19;93.52
21824;BME280;11074;48.596;9.238;2022-07-29T07:19:39;98132.63;;;21.29;93.79
21824;BME280;11074;48.596;9.238;2022-07-29T07:22:05;98130.06;;;21.33;94.81
21824;BME280;11074;48.596;9.238;2022-07-29T07:24:31;98135.22;;;21.34;92.13
21824;BME280;11074;48.596;9.238;2022-07-29T07:26:56;98121.28;;;21.36;93.36
21824;BME280;11074;48.596;9.238;2022-07-29T07:29:22;98133.09;;;21.40;91.76
21824;BME280;11074;48.596;9.238;2022-07-29T07:31:48;98131.50;;;21.47;91.81
21824;BME280;11074;48.596;9.238;2022-07-29T07:34:14;98138.53;;;21.48;90.95
21824;BME280;11074;48.596;9.238;2022-07-29T07:36:39;98136.28;;;21.50;89.75
21824;BME280;11074;48.596;9.238;2022-07-29T07:39:05;98141.06;;;21.53;89.57
21824;BME280;11074;48.596;9.238;2022-07-29T07:41:31;98144.13;;;21.43;86.81
21824;BME280;11074;48.596;9.238;2022-07-29T07:43:57;98138.06;;;21.46;86.66
21824;BME280;11074;48.596;9.238;2022-07-29T07:46:22;98145.28;;;21.42;86.12
21824;BME280;11074;48.596;9.238;2022-07-29T07:48:48;98145.88;;;21.48;83.69
21824;BME280;11074;48.596;9.238;2022-07-29T07:51:14;98145.09;;;21.47;85.85
21824;BME280;11074;48.596;9.238;2022-07-29T07:53:39;98139.94;;;21.63;85.71
21824;BME280;11074;48.596;9.238;2022-07-29T07:56:05;98138.03;;;21.63;85.53
21824;BME280;11074;48.596;9.238;2022-07-29T07:58:32;98139.44;;;21.69;85.03
21824;BME280;11074;48.596;9.238;2022-07-29T08:00:58;98136.22;;;21.76;84.73
21824;BME280;11074;48.596;9.238;2022-07-29T08:03:24;98141.00;;;21.79;84.49
21824;BME280;11074;48.596;9.238;2022-07-29T08:05:49;98135.38;;;21.84;84.92
21824;BME280;11074;48.596;9.238;2022-07-29T08:08:17;98142.13;;;21.87;83.90
21824;BME280;11074;48.596;9.238;2022-07-29T08:10:43;98139.41;;;21.87;83.69
21824;BME280;11074;48.596;9.238;2022-07-29T08:13:20;98139.56;;;21.90;83.67
21824;BME280;11074;48.596;9.238;2022-07-29T08:15:46;98142.88;;;21.96;84.10
21824;BME280;11074;48.596;9.238;2022-07-29T08:18:13;98140.31;;;21.99;83.21
21824;BME280;11074;48.596;9.238;2022-07-29T08:20:39;98139.34;;;22.04;83.40
21824;BME280;11074;48.596;9.238;2022-07-29T08:23:07;98139.03;;;22.05;82.14
21824;BME280;11074;48.596;9.238;2022-07-29T08:25:37;98134.31;;;22.14;81.79
21824;BME280;11074;48.596;9.238;2022-07-29T08:28:04;98134.00;;;22.16;82.65
21824;BME280;11074;48.596;9.238;2022-07-29T08:30:31;98136.81;;;22.28;82.48
21824;BME280;11074;48.596;9.238;2022-07-29T08:32:58;98144.88;;;22.24;82.76
21824;BME280;11074;48.596;9.238;2022-07-29T08:35:24;98139.41;;;22.24;82.66
21824;BME280;11074;48.596;9.238;2022-07-29T08:37:51;98134.91;;;22.28;82.40
21824;BME280;11074;48.596;9.238;2022-07-29T08:40:17;98135.84;;;22.32;82.84
21824;BME280;11074;48.596;9.238;2022-07-29T08:42:43;98136.59;;;22.42;82.24
21824;BME280;11074;48.596;9.238;2022-07-29T08:45:10;98134.28;;;22.52;80.12
21824;BME280;11074;48.596;9.238;2022-07-29T08:47:38;98127.97;;;22.60;79.93
21824;BME280;11074;48.596;9.238;2022-07-29T08:50:07;98134.41;;;22.64;81.00
21824;BME280;11074;48.596;9.238;2022-07-29T08:52:37;98135.97;;;22.65;80.06
21824;BME280;11074;48.596;9.238;2022-07-29T08:55:06;98136.28;;;22.72;78.96
21824;BME280;11074;48.596;9.238;2022-07-29T08:57:34;98140.56;;;22.73;79.29
21824;BME280;11074;48.596;9.238;2022-07-29T09:00:04;98136.38;;;22.76;78.46
21824;BME280;11074;48.596;9.238;2022-07-29T09:02:40;98138.78;;;22.77;78.65
21824;BME280;11074;48.596;9.238;2022-07-29T09:05:07;98145.63;;;22.83;79.03
21824;BME280;11074;48.596;9.238;2022-07-29T09:07:33;98142.84;;;22.92;76.08
21824;BME280;11074;48.596;9.238;2022-07-29T09:10:00;98146.16;;;22.98;75.51
21824;BME280;11074;48.596;9.238;2022-07-29T09:12:26;98143.38;;;23.06;77.13
21824;BME280;11074;48.596;9.238;2022-07-29T09:14:52;98139.84;;;23.06;76.81
21824;BME280;11074;48.596;9.238;2022-07-29T09:17:18;98142.50;;;23.14;71.69
21824;BME280;11074;48.596;9.238;2022-07-29T09:20:24;98135.94;;;23.15;74.75
21824;BME280;11074;48.596;9.238;2022-07-29T09:22:52;98135.50;;;23.25;73.19
21824;BME280;11074;48.596;9.238;2022-07-29T09:25:39;98137.56;;;23.28;72.96
21824;BME280;11074;48.596;9.238;2022-07-29T09:28:15;98135.63;;;23.29;73.38
21824;BME280;11074;48.596;9.238;2022-07-29T09:30:53;98131.19;;;23.24;75.31
21824;BME280;11074;48.596;9.238;2022-07-29T09:33:21;98130.97;;;23.29;74.11
21824;BME280;11074;48.596;9.238;2022-07-29T09:36:03;98125.78;;;23.36;74.97
21824;BME280;11074;48.596;9.238;2022-07-29T09:38:29;98127.66;;;23.44;72.02
21824;BME280;11074;48.596;9.238;2022-07-29T09:41:01;98130.63;;;23.51;68.30
21824;BME280;11074;48.596;9.238;2022-07-29T09:43:27;98129.88;;;23.63;65.76
21824;BME280;11074;48.596;9.238;2022-07-29T09:45:54;98127.59;;;23.77;66.11
21824;BME280;11074;48.596;9.238;2022-07-29T09:48:25;98123.53;;;23.83;69.33
21824;BME280;11074;48.596;9.238;2022-07-29T09:50:51;98118.06;;;23.83;70.08
21824;BME280;11074;48.596;9.238;2022-07-29T09:53:37;98117.94;;;23.80;72.73
21824;BME280;11074;48.596;9.238;2022-07-29T09:56:06;98120.91;;;23.87;71.67
21824;BME280;11074;48.596;9.238;2022-07-29T09:58:32;98119.09;;;23.91;69.78
21824;BME280;11074;48.596;9.238;2022-07-29T10:01:02;98128.88;;;23.92;68.74
21824;BME280;11074;48.596;9.238;2022-07-29T10:03:28;98122.75;;;23.95;67.19
21824;BME280;11074;48.596;9.238;2022-07-29T10:06:09;98122.41;;;23.96;67.40
21824;BME280;11074;48.596;9.238;2022-07-29T10:08:36;98121.16;;;23.94;67.41
21824;BME280;11074;48.596;9.238;2022-07-29T10:11:15;98118.19;;;23.99;67.44
21824;BME280;11074;48.596;9.238;2022-07-29T10:13:45;98113.97;;;24.01;68.07
21824;BME280;11074;48.596;9.238;2022-07-29T10:16:12;98107.84;;;24.04;69.09
21824;BME280;11074;48.596;9.238;2022-07-29T10:18:39;98110.38;;;24.09;67.80
21824;BME280;11074;48.596;9.238;2022-07-29T10:21:06;98109.44;;;24.05;69.21
21824;BME280;11074;48.596;9.238;2022-07-29T10:23:34;98103.78;;;24.10;68.31
21824;BME280;11074;48.596;9.238;2022-07-29T10:26:02;98103.19;;;24.17;69.71
21824;BME280;11074;48.596;9.238;2022-07-29T10:28:32;98098.53;;;24.18;70.04
21824;BME280;11074;48.596;9.238;2022-07-29T10:31:06;98101.94;;;24.27;66.50
21824;BME280;11074;48.596;9.238;2022-07-29T10:36:46;98094.84;;;24.50;65.11
21824;BME280;11074;48.596;9.238;2022-07-29T10:39:56;98098.28;;;24.59;67.28
21824;BME280;11074;48.596;9.238;2022-07-29T10:42:28;98096.06;;;24.64;67.78
21824;BME280;11074;48.596;9.238;2022-07-29T10:44:56;98083.19;;;24.65;67.13
21824;BME280;11074;48.596;9.238;2022-07-29T10:47:23;98087.09;;;24.64;67.29
21824;BME280;11074;48.596;9.238;2022-07-29T10:50:04;98082.94;;;24.70;65.47
21824;BME280;11074;48.596;9.238;2022-07-29T10:55:38;98079.44;;;24.69;65.61
21824;BME280;11074;48.596;9.238;2022-07-29T10:58:15;98072.94;;;24.74;66.15
21824;BME280;11074;48.596;9.238;2022-07-29T11:00:41;98061.63;;;24.76;66.15
21824;BME280;11074;48.596;9.238;2022-07-29T11:03:07;98061.97;;;24.86;66.19
21824;BME280;11074;48.596;9.238;2022-07-29T11:05:56;98078.59;;;24.93;65.48
21824;BME280;11074;48.596;9.238;2022-07-29T11:08:23;98081.22;;;24.90;66.52
21824;BME280;11074;48.596;9.238;2022-07-29T11:10:53;98093.84;;;24.94;62.26
21824;BME280;11074;48.596;9.238;2022-07-29T11:16:12;98061.81;;;24.95;62.78
21824;BME280;11074;48.596;9.238;2022-07-29T11:21:43;98074.94;;;24.89;65.25
21824;BME280;11074;48.596;9.238;2022-07-29T11:26:42;98065.03;;;25.12;63.76
21824;BME280;11074;48.596;9.238;2022-07-29T11:29:21;98076.19;;;25.19;63.73
21824;BME280;11074;48.596;9.238;2022-07-29T11:31:52;98077.78;;;25.20;63.22
21824;BME280;11074;48.596;9.238;2022-07-29T11:34:31;98086.50;;;25.10;63.06
21824;BME280;11074;48.596;9.238;2022-07-29T11:39:44;98123.97;;;24.70;65.32
21824;BME280;11074;48.596;9.238;2022-07-29T11:44:58;98156.25;;;24.16;66.30
21824;BME280;11074;48.596;9.238;2022-07-29T11:47:27;98176.00;;;24.01;68.33
21824;BME280;11074;48.596;9.238;2022-07-29T11:49:56;98152.53;;;23.76;71.19
21824;BME280;11074;48.596;9.238;2022-07-29T11:52:44;98154.00;;;23.73;71.43
21824;BME280;11074;48.596;9.238;2022-07-29T11:55:18;98144.28;;;23.51;71.83
21824;BME280;11074;48.596;9.238;2022-07-29T11:57:48;98143.91;;;23.53;70.85
21824;BME280;11074;48.596;9.238;2022-07-29T12:03:01;98145.69;;;23.16;70.37
21824;BME280;11074;48.596;9.238;2022-07-29T12:05:46;98148.94;;;23.30;70.49
21824;BME280;11074;48.596;9.238;2022-07-29T12:08:21;98143.44;;;23.39;71.22
21824;BME280;11074;48.596;9.238;2022-07-29T12:10:49;98139.69;;;23.43;70.43
21824;BME280;11074;48.596;9.238;2022-07-29T12:13:19;98131.53;;;23.56;69.71
21824;BME280;11074;48.596;9.238;2022-07-29T12:15:57;98126.34;;;23.63;70.80
21824;BME280;11074;48.596;9.238;2022-07-29T12:18:24;98136.69;;;23.69;70.29
21824;BME280;11074;48.596;9.238;2022-07-29T12:21:01;98133.06;;;23.77;69.65
21824;BME280;11074;48.596;9.238;2022-07-29T12:23:32;98132.06;;;23.94;70.90
21824;BME280;11074;48.596;9.238;2022-07-29T12:25:58;98135.50;;;24.03;70.08
21824;BME280;11074;48.596;9.238;2022-07-29T12:28:25;98128.81;;;24.25;70.25
21824;BME280;11074;48.596;9.238;2022-07-29T12:30:51;98134.38;;;24.28;69.32
21824;BME280;11074;48.596;9.238;2022-07-29T12:33:28;98121.31;;;24.22;69.77
21824;BME280;11074;48.596;9.238;2022-07-29T12:36:01;98128.81;;;24.13;69.78
21824;BME280;11074;48.596;9.238;2022-07-29T12:38:28;98127.31;;;24.03;70.40
21824;BME280;11074;48.596;9.238;2022-07-29T12:40:54;98127.72;;;23.93;70.73
21824;BME280;11074;48.596;9.238;2022-07-29T12:43:22;98125.00;;;23.93;69.93
21824;BME280;11074;48.596;9.238;2022-07-29T12:45:56;98128.75;;;23.88;70.76
21824;BME280;11074;48.596;9.238;2022-07-29T12:48:40;98133.28;;;23.72;73.88
21824;BME280;11074;48.596;9.238;2022-07-29T12:51:08;98148.63;;;23.65;74.21
21824;BME280;11074;48.596;9.238;2022-07-29T12:53:36;98140.00;;;23.42;75.20
21824;BME280;11074;48.596;9.238;2022-07-29T12:56:03;98141.84;;;23.38;73.07
21824;BME280;11074;48.596;9.238;2022-07-29T12:58:39;98142.16;;;23.36;74.92
21824;BME280;11074;48.596;9.238;2022-07-29T13:01:13;98141.50;;;23.19;75.73
21824;BME280;11074;48.596;9.238;2022-07-29T13:03:55;98136.19;;;23.22;75.34
21824;BME280;11074;48.596;9.238;2022-07-29T13:09:13;98133.44;;;23.22;74.84
21824;BME280;11074;48.596;9.238;2022-07-29T13:11:48;98137.19;;;23.50;75.91
21824;BME280;11074;48.596;9.238;2022-07-29T13:14:37;98145.09;;;23.64;73.08
21824;BME280;11074;48.596;9.238;2022-07-29T13:17:08;98154.00;;;23.85;69.56
21824;BME280;11074;48.596;9.238;2022-07-29T13:19:49;98150.50;;;23.97;69.06
21824;BME280;11074;48.596;9.238;2022-07-29T13:22:20;98157.00;;;24.04;69.35
21824;BME280;11074;48.596;9.238;2022-07-29T13:25:01;98155.34;;;23.79;67.88
21824;BME280;11074;48.596;9.238;2022-07-29T13:27:34;98163.97;;;23.57;71.01
21824;BME280;11074;48.596;9.238;2022-07-29T13:30:05;98157.69;;;23.57;72.42
21824;BME280;11074;48.596;9.238;2022-07-29T13:32:32;98176.28;;;23.75;69.23
21824;BME280;11074;48.596;9.238;2022-07-29T13:35:03;98178.91;;;23.72;71.18
21824;BME280;11074;48.596;9.238;2022-07-29T13:37:29;98177.16;;;23.55;71.69
21824;BME280;11074;48.596;9.238;2022-07-29T13:39:56;98184.66;;;23.58;78.28
21824;BME280;11074;48.596;9.238;2022-07-29T13:42:23;98183.88;;;23.37;76.32
21824;BME280;11074;48.596;9.238;2022-07-29T13:44:50;98189.47;;;23.40;77.25